< < Back
Terminal Aerodrome Forecast


Current Version              Previous Versions:   1  2  3  4  5  6  7  8  9  

Terminal Aerodrome Forecast

256
FTUS44 KOHX 051700
TAFBNA
TAF
KBNA 051720Z 0518/0618 35010G18KT P6SM OVC025
     FM052000 35010G16KT P6SM BKN050
     FM060100 35009KT P6SM SCT250
     FM060800 01004KT P6SM SKC=

Latest METAR

432
SAUS70 KWBC 052000 RRD
MTRBNA
METAR KBNA 051953Z 35009G15KT 10SM BKN017 BKN050 M04/M08 A3043 RMK AO2
SNE13 SLP313 P0000 T10391078


USA.gov is the U.S. government's official web portal to all federal, state and local government web resources and services.